Kingstree, SC

9:13 PM EDT on September 19, 2014 (GMT -0400)
Williamsburg County | Change Station
CLOSE
Current Station
Airport
Location: Kingstree,
Elevation: 66 ft
Nearby Weather Stations

Elev 66 ft 33.72 °N, 79.86 °W | Updated 18 minutes ago

Clear
Clear
72 °F
Feels Like 72 °F
N
0
Wind Variable Wind from North

Today
High -- | Low -- °F
--% Chance of Precip.
Yesterday
High -- | Low -- °F
Precip. -- in
7:05 AM 7:20 PM
Waning Crescent, 15% visible
Pressure 30.13 in
Visibility 10.0 miles
Clouds Clear
Dew Point 70 °F
Humidity 94%
Rainfall 0.00 in
Snow Depth Not available.
UV 0 out of 12
Pollen 8.50 out of 12
Air Quality Not available.
Flu Activity Not available.
METAR KCKI 200055Z AUTO 00000KT 10SM CLR 22/21 A3013 RMK AO2

More Conditions Fewer Conditions

Pressure 30.13 in
Visibility 10.0 miles
Clouds Clear
Dew Point 70 °F
Humidity 94%
Rainfall 0.00 in
Snow Depth Not available.
UV 0 out of 12
Pollen 8.50 out of 12
Air Quality Not available.
Flu Activity Not available.
METAR KCKI 200055Z AUTO 00000KT 10SM CLR 22/21 A3013 RMK AO2

More Conditions Fewer Conditions

10-Day Weather Forecast

Almanac

Astronomy

Sep. 19, 2014 Rise Set
Actual Time 7:05 AM EDT 7:20 PM EDT
Civil Twilight 6:40 AM EDT 7:45 PM EDT
Nautical Twilight 6:11 AM EDT 8:14 PM EDT
Astronomical Twilight 5:41 AM EDT 8:43 PM EDT
Moon 2:58 AM EDT (9/19) 4:39 PM EDT (9/19)
Length of Visible Light 13h 04m
Length of Day
12h 14m
Tomorrow will be 2m 4s shorter.
Waning Crescent, 15% of the Moon is Illuminated
Today
Waning Crescent
Sep 24
New
Oct 1
First Quarter
Oct 8
Full
Oct 15
Last Quarter

Today's Extremes

State Highs State Lows

Community

WunderPhotos

Upload Photos

1,754,755 photos uploaded!

WunderBlogs® & News

Nearby

Snow Depth

Station Depth Elevation
No new snow has been reported.

Earthquake Activity

City Distance Mag. Time & Date
New Ellenton, South Carolina 108 miles 2.6 4:38 PM EDT
2014-09-19
Minimum magnitude displayed is 2.5.

Coastal Water Temperatures

Place Temperature
No Stations Reporting

Nearby Weather Stations